Time,TemperatureF,DewpointF,PressureIn,WindDirection,WindDirectionDegrees,WindSpeedMPH,WindSpeedGustMPH,Humidity,HourlyPrecipIn,Conditions,Clouds,dailyrainin,SolarRadiationWatts/m^2,SoftwareType,DateUTC
2013-04-30 00:01:00,60.8,49.0,29.94,SSE,158,6.4,9.2,65,0.00,SCT,OVC,0.00,0.0,WeatherDisplay:10.37,2013-04-30 04:01:00,
2013-04-30 00:06:00,60.8,49.0,29.94,SSE,158,7.4,11.4,65,0.00,-RA,OVC,0.00,0.0,WeatherDisplay:10.37,2013-04-30 04:06:00,
2013-04-30 00:11:00,60.8,49.0,29.94,SSE,158,9.8,13.8,65,0.00,-RA,OVC,0.00,0.0,WeatherDisplay:10.37,2013-04-30 04:11:00,
2013-04-30 00:16:00,60.6,49.2,29.94,SSE,158,5.9,12.7,66,0.00,-RA,OVC,0.00,0.0,WeatherDisplay:10.37,2013-04-30 04:16:00,
2013-04-30 00:21:00,60.6,49.2,29.94,SSE,158,7.6,10.4,66,0.00,-RA,OVC,0.00,0.0,WeatherDisplay:10.37,2013-04-30 04:21:00,
2013-04-30 00:26:00,60.6,49.2,29.94,SSW,202,9.7,12.7,66,0.00,-RA,OVC,0.00,0.0,WeatherDisplay:10.37,2013-04-30 04:26:00,
2013-04-30 00:31:00,60.6,49.2,29.94,SSW,202,6.4,8.7,66,0.00,-RA,OVC,0.00,0.0,WeatherDisplay:10.37,2013-04-30 04:31:00,
2013-04-30 00:36:00,60.6,49.2,29.97,SSW,202,8.1,10.4,66,0.00,-RA,OVC,0.00,0.0,WeatherDisplay:10.37,2013-04-30 04:36:00,
2013-04-30 00:41:00,60.4,49.0,29.97,SSE,158,7.8,10.0,66,0.00,-RA,OVC,0.00,0.0,WeatherDisplay:10.37,2013-04-30 04:41:00,
2013-04-30 00:46:00,60.4,49.0,29.97,SSW,202,8.1,11.5,66,0.00,-RA,OVC,0.00,0.0,WeatherDisplay:10.37,2013-04-30 04:46:00,
2013-04-30 00:51:00,60.4,49.0,29.97,SSW,202,6.0,11.5,66,0.00,-RA,OVC,0.00,0.0,WeatherDisplay:10.37,2013-04-30 04:51:00,
2013-04-30 00:56:00,60.4,49.0,29.97,SSE,158,4.9,9.2,66,0.00,-RA,OVC,0.00,0.0,WeatherDisplay:10.37,2013-04-30 04:56:00,
2013-04-30 01:01:00,60.3,48.9,29.97,SSE,158,6.9,6.9,66,0.00,BKN,OVC,0.00,0.0,WeatherDisplay:10.37,2013-04-30 05:01:00,
2013-04-30 01:07:00,60.3,49.3,29.97,SSE,158,8.7,10.4,67,0.00,BKN,OVC,0.00,0.0,WeatherDisplay:10.37,2013-04-30 05:07:00,
2013-04-30 01:12:00,60.1,49.1,29.97,South,180,6.0,8.1,67,0.00,BKN,OVC,0.00,0.0,WeatherDisplay:10.37,2013-04-30 05:12:00,
2013-04-30 01:17:00,60.1,49.1,29.97,SSE,158,8.1,10.4,67,0.00,BKN,OVC,0.00,0.0,WeatherDisplay:10.37,2013-04-30 05:17:00,
2013-04-30 01:22:00,59.9,48.9,29.97,SSW,202,6.9,10.0,67,0.00,BKN,OVC,0.00,0.0,WeatherDisplay:10.37,2013-04-30 05:22:00,
2013-04-30 01:27:00,59.9,48.9,29.97,SSE,158,5.6,6.9,67,0.00,BKN,OVC,0.00,0.0,WeatherDisplay:10.37,2013-04-30 05:27:00,
2013-04-30 01:32:00,59.7,48.7,29.97,South,180,5.9,9.2,67,0.00,BKN,OVC,0.00,0.0,WeatherDisplay:10.37,2013-04-30 05:32:00,
2013-04-30 01:37:00,59.5,48.6,29.97,South,180,6.9,9.2,67,0.00,BKN,OVC,0.00,0.0,WeatherDisplay:10.37,2013-04-30 05:37:00,
2013-04-30 01:42:00,59.5,48.6,29.97,South,180,4.7,8.1,67,0.00,BKN,OVC,0.00,0.0,WeatherDisplay:10.37,2013-04-30 05:42:00,
2013-04-30 01:47:00,59.4,48.4,29.97,SSE,158,6.0,9.2,67,0.00,BKN,OVC,0.00,0.0,WeatherDisplay:10.37,2013-04-30 05:47:00,
2013-04-30 01:52:00,59.4,48.8,29.97,SSW,202,5.9,6.9,68,0.00,BKN,OVC,0.00,0.0,WeatherDisplay:10.37,2013-04-30 05:52:00,
2013-04-30 01:57:00,59.2,48.6,29.97,SSW,202,7.1,8.1,68,0.00,BKN,OVC,0.00,0.0,WeatherDisplay:10.37,2013-04-30 05:57:00,
2013-04-30 02:02:00,59.2,48.6,29.97,SSE,158,2.9,4.6,68,0.00,FEW,OVC,0.00,0.0,WeatherDisplay:10.37,2013-04-30 06:02:00,
2013-04-30 02:07:00,59.2,48.6,29.97,South,180,5.6,6.9,68,0.00,FEW,OVC,0.00,0.0,WeatherDisplay:10.37,2013-04-30 06:07:00,
2013-04-30 02:12:00,59.0,48.4,29.97,South,180,6.0,8.1,68,0.00,FEW,OVC,0.00,0.0,WeatherDisplay:10.37,2013-04-30 06:12:00,
2013-04-30 02:17:00,59.0,48.4,29.97,South,180,5.4,6.9,68,0.00,FEW,OVC,0.00,0.0,WeatherDisplay:10.37,2013-04-30 06:17:00,
2013-04-30 02:22:00,58.8,48.7,29.97,SSE,158,4.7,8.1,69,0.00,FEW,OVC,0.00,0.0,WeatherDisplay:10.37,2013-04-30 06:22:00,
2013-04-30 02:27:00,58.6,48.5,29.97,SSE,158,7.8,10.4,69,0.00,FEW,OVC,0.00,0.0,WeatherDisplay:10.37,2013-04-30 06:27:00,
2013-04-30 02:32:00,58.6,48.5,29.97,SSW,202,8.1,10.4,69,0.00,FEW,OVC,0.00,0.0,WeatherDisplay:10.37,2013-04-30 06:32:00,
2013-04-30 02:37:00,58.5,48.3,29.97,South,180,6.7,12.7,69,0.00,FEW,OVC,0.00,0.0,WeatherDisplay:10.37,2013-04-30 06:37:00,
2013-04-30 02:42:00,58.5,48.3,29.97,SSE,158,5.9,8.1,69,0.00,FEW,OVC,0.00,0.0,WeatherDisplay:10.37,2013-04-30 06:42:00,
2013-04-30 02:47:00,58.3,48.2,29.97,South,180,6.0,9.2,69,0.00,FEW,OVC,0.00,0.0,WeatherDisplay:10.37,2013-04-30 06:47:00,
2013-04-30 02:52:00,58.1,48.0,29.97,SSW,202,4.7,6.9,69,0.00,FEW,OVC,0.00,0.0,WeatherDisplay:10.37,2013-04-30 06:52:00,
2013-04-30 02:57:00,58.1,48.0,29.97,SSE,158,5.6,8.1,69,0.00,FEW,OVC,0.00,0.0,WeatherDisplay:10.37,2013-04-30 06:57:00,
2013-04-30 03:02:00,57.9,48.2,29.97,SSE,158,6.2,6.9,70,0.00,FEW,OVC,0.00,0.0,WeatherDisplay:10.37,2013-04-30 07:02:00,
2013-04-30 03:07:00,57.7,48.0,29.97,SSW,202,4.5,8.1,70,0.00,FEW,OVC,0.00,0.0,WeatherDisplay:10.37,2013-04-30 07:07:00,
2013-04-30 03:12:00,57.7,48.0,29.97,South,180,4.9,5.8,70,0.00,FEW,OVC,0.00,0.0,WeatherDisplay:10.37,2013-04-30 07:12:00,
2013-04-30 03:17:00,57.6,47.8,29.97,SSE,158,5.4,6.9,70,0.00,FEW,OVC,0.00,0.0,WeatherDisplay:10.37,2013-04-30 07:17:00,
2013-04-30 03:22:00,57.6,47.8,29.97,South,180,4.7,6.9,70,0.00,FEW,OVC,0.00,0.0,WeatherDisplay:10.37,2013-04-30 07:22:00,
2013-04-30 03:27:00,57.6,48.2,29.97,South,180,6.2,6.9,71,0.00,FEW,OVC,0.00,0.0,WeatherDisplay:10.37,2013-04-30 07:27:00,
2013-04-30 03:32:00,57.4,48.1,29.97,SSW,202,4.9,5.8,71,0.00,FEW,OVC,0.00,0.0,WeatherDisplay:10.37,2013-04-30 07:32:00,
2013-04-30 03:37:00,57.4,48.1,29.97,South,180,4.3,5.8,71,0.00,FEW,OVC,0.00,0.0,WeatherDisplay:10.37,2013-04-30 07:37:00,
2013-04-30 03:42:00,57.2,47.9,29.97,SSW,202,6.0,8.1,71,0.00,FEW,OVC,0.00,0.0,WeatherDisplay:10.37,2013-04-30 07:42:00,
2013-04-30 03:47:00,57.2,47.9,29.97,SSW,202,4.9,6.0,71,0.00,FEW,OVC,0.00,0.0,WeatherDisplay:10.37,2013-04-30 07:47:00,
2013-04-30 03:52:00,57.2,48.3,29.97,SSE,158,6.0,6.9,72,0.00,FEW,OVC,0.00,0.0,WeatherDisplay:10.37,2013-04-30 07:52:00,
2013-04-30 03:57:00,57.0,48.1,29.97,SSW,202,3.6,3.6,72,0.00,FEW,OVC,0.00,0.0,WeatherDisplay:10.37,2013-04-30 07:57:00,
2013-04-30 04:02:00,56.8,47.9,29.97,South,180,4.7,5.8,72,0.00,FEW,OVC,0.00,0.0,WeatherDisplay:10.37,2013-04-30 08:02:00,
2013-04-30 04:07:00,56.8,47.9,29.97,SSW,202,3.3,5.8,72,0.00,FEW,OVC,0.00,0.0,WeatherDisplay:10.37,2013-04-30 08:07:00,
2013-04-30 04:12:00,56.8,48.3,29.97,South,180,4.3,5.8,73,0.00,FEW,OVC,0.00,0.0,WeatherDisplay:10.37,2013-04-30 08:12:00,
2013-04-30 04:17:00,56.7,48.1,29.97,SSE,158,4.9,5.8,73,0.00,FEW,OVC,0.00,0.0,WeatherDisplay:10.37,2013-04-30 08:17:00,
2013-04-30 04:22:00,56.7,48.1,30.00,South,180,4.7,8.1,73,0.00,FEW,OVC,0.00,0.0,WeatherDisplay:10.37,2013-04-30 08:22:00,
2013-04-30 04:27:00,56.7,48.1,30.00,SSE,158,5.4,7.1,73,0.00,FEW,OVC,0.00,0.0,WeatherDisplay:10.37,2013-04-30 08:27:00,
2013-04-30 04:32:00,56.5,47.9,30.00,SSE,158,4.9,5.8,73,0.00,FEW,OVC,0.00,0.0,WeatherDisplay:10.37,2013-04-30 08:32:00,
2013-04-30 04:37:00,56.3,47.8,29.97,South,180,5.4,5.8,73,0.00,FEW,OVC,0.00,0.0,WeatherDisplay:10.37,2013-04-30 08:37:00,
2013-04-30 04:42:00,56.3,47.8,29.97,SSE,158,5.9,8.1,73,0.00,FEW,OVC,0.00,0.0,WeatherDisplay:10.37,2013-04-30 08:42:00,
2013-04-30 04:47:00,56.3,48.1,29.97,South,180,4.7,5.8,74,0.00,FEW,OVC,0.00,0.0,WeatherDisplay:10.37,2013-04-30 08:47:00,
2013-04-30 04:52:00,56.1,47.9,30.00,SSE,158,4.7,6.9,74,0.00,FEW,OVC,0.00,0.0,WeatherDisplay:10.37,2013-04-30 08:52:00,
2013-04-30 04:57:00,55.9,47.8,30.00,SSE,158,4.0,5.8,74,0.00,FEW,OVC,0.00,0.0,WeatherDisplay:10.37,2013-04-30 08:57:00,
2013-04-30 05:02:00,55.9,47.8,30.00,SSE,158,5.4,6.9,74,0.00,CLR,OVC,0.00,0.0,WeatherDisplay:10.37,2013-04-30 09:02:00,
2013-04-30 05:07:00,55.9,47.8,30.00,SSW,202,4.7,5.8,74,0.00,CLR,OVC,0.00,0.0,WeatherDisplay:10.37,2013-04-30 09:07:00,
2013-04-30 05:12:00,55.9,47.8,30.00,SSE,158,4.5,5.8,74,0.00,CLR,OVC,0.00,0.0,WeatherDisplay:10.37,2013-04-30 09:12:00,
2013-04-30 05:17:00,55.8,47.6,30.00,SSE,158,3.8,5.8,74,0.00,CLR,OVC,0.00,0.0,WeatherDisplay:10.37,2013-04-30 09:17:00,
2013-04-30 05:22:00,55.8,47.6,30.00,SSE,158,5.4,5.9,74,0.00,CLR,OVC,0.00,0.0,WeatherDisplay:10.37,2013-04-30 09:22:00,
2013-04-30 05:27:00,55.6,47.8,30.00,SSE,158,4.0,6.9,75,0.00,CLR,OVC,0.00,0.0,WeatherDisplay:10.37,2013-04-30 09:27:00,
2013-04-30 05:32:00,55.6,47.8,30.00,SSE,158,4.5,5.8,75,0.00,CLR,OVC,0.00,0.0,WeatherDisplay:10.37,2013-04-30 09:32:00,
2013-04-30 05:37:00,55.4,47.6,30.00,SSE,158,4.7,5.8,75,0.00,CLR,OVC,0.00,0.0,WeatherDisplay:10.37,2013-04-30 09:37:00,
2013-04-30 05:42:00,55.4,47.6,30.00,SSE,158,5.4,5.8,75,0.00,CLR,OVC,0.00,0.0,WeatherDisplay:10.37,2013-04-30 09:42:00,
2013-04-30 05:47:00,55.4,47.6,30.00,SSE,158,4.5,5.9,75,0.00,CLR,OVC,0.00,0.0,WeatherDisplay:10.37,2013-04-30 09:47:00,
2013-04-30 05:53:00,55.2,47.4,29.97,SSE,158,4.9,5.8,75,0.00,CLR,OVC,0.00,0.0,WeatherDisplay:10.37,2013-04-30 09:53:00,
2013-04-30 05:58:00,55.0,47.6,29.97,SSE,158,4.9,6.4,76,0.00,CLR,OVC,0.00,0.0,WeatherDisplay:10.37,2013-04-30 09:58:00,
2013-04-30 06:03:00,55.0,47.6,29.97,South,180,4.9,5.8,76,0.00,CLR,OVC,0.00,0.0,WeatherDisplay:10.37,2013-04-30 10:03:00,
2013-04-30 06:08:00,54.9,47.4,29.97,SSE,158,4.9,6.9,76,0.00,CLR,OVC,0.00,0.0,WeatherDisplay:10.37,2013-04-30 10:08:00,
2013-04-30 06:13:00,54.9,47.4,29.97,SSE,158,6.2,8.1,76,0.00,CLR,OVC,0.00,0.0,WeatherDisplay:10.37,2013-04-30 10:13:00,
2013-04-30 06:18:00,54.7,47.3,29.97,SSE,158,6.2,6.9,76,0.00,CLR,OVC,0.00,0.0,WeatherDisplay:10.37,2013-04-30 10:18:00,
2013-04-30 06:23:00,54.7,47.3,29.97,SSE,158,6.4,8.1,76,0.00,CLR,OVC,0.00,0.0,WeatherDisplay:10.37,2013-04-30 10:23:00,
2013-04-30 06:28:00,54.7,47.3,29.97,SSE,158,6.4,8.1,76,0.00,CLR,OVC,0.00,0.0,WeatherDisplay:10.37,2013-04-30 10:28:00,
2013-04-30 06:33:00,54.7,47.3,29.97,SSE,158,4.9,6.0,76,0.00,CLR,OVC,0.00,0.0,WeatherDisplay:10.37,2013-04-30 10:33:00,
2013-04-30 06:38:00,54.5,47.4,29.97,SSE,158,4.9,6.9,77,0.00,CLR,OVC,0.00,0.0,WeatherDisplay:10.37,2013-04-30 10:38:00,
2013-04-30 06:43:00,54.5,47.4,29.97,SSE,158,5.4,5.9,77,0.00,CLR,OVC,0.00,0.0,WeatherDisplay:10.37,2013-04-30 10:43:00,
2013-04-30 06:48:00,54.5,47.4,29.97,SSE,158,5.4,6.9,77,0.00,CLR,OVC,0.00,0.0,WeatherDisplay:10.37,2013-04-30 10:48:00,
2013-04-30 06:53:00,54.5,47.4,29.97,SSE,158,4.9,5.8,77,0.00,CLR,OVC,0.00,0.0,WeatherDisplay:10.37,2013-04-30 10:53:00,
2013-04-30 06:58:00,54.5,47.4,29.97,SSE,158,6.7,8.1,77,0.00,CLR,OVC,0.00,0.0,WeatherDisplay:10.37,2013-04-30 10:58:00,
2013-04-30 07:03:00,54.7,48.0,29.97,SSW,202,4.9,8.1,78,0.00,CLR,OVC,0.00,0.0,WeatherDisplay:10.37,2013-04-30 11:03:00,
2013-04-30 07:08:00,54.9,48.1,29.97,SSE,158,4.9,8.1,78,0.00,CLR,OVC,0.00,0.0,WeatherDisplay:10.37,2013-04-30 11:08:00,
2013-04-30 07:13:00,55.2,48.8,29.97,SSE,158,4.0,8.1,79,0.00,CLR,OVC,0.00,0.0,WeatherDisplay:10.37,2013-04-30 11:13:00,
2013-04-30 07:18:00,55.8,49.0,29.97,SSW,202,6.0,6.0,78,0.00,CLR,OVC,0.00,0.0,WeatherDisplay:10.37,2013-04-30 11:18:00,
2013-04-30 07:23:00,55.9,49.2,29.97,SSE,158,6.0,6.9,78,0.00,CLR,OVC,0.00,0.0,WeatherDisplay:10.37,2013-04-30 11:23:00,
2013-04-30 07:28:00,56.3,49.5,29.97,SSW,202,6.2,6.9,78,0.00,CLR,OVC,0.00,0.0,WeatherDisplay:10.37,2013-04-30 11:28:00,
2013-04-30 07:33:00,56.5,49.7,29.97,SSE,158,6.9,6.9,78,0.00,CLR,OVC,0.00,0.0,WeatherDisplay:10.37,2013-04-30 11:33:00,
2013-04-30 07:38:00,56.8,50.1,30.00,SSW,202,4.5,6.9,78,0.00,CLR,OVC,0.00,0.0,WeatherDisplay:10.37,2013-04-30 11:38:00,
2013-04-30 07:43:00,57.2,50.4,30.00,South,180,5.6,10.5,78,0.00,CLR,OVC,0.00,0.0,WeatherDisplay:10.37,2013-04-30 11:43:00,
2013-04-30 07:48:00,57.7,50.9,30.00,SSW,202,5.4,7.8,78,0.00,CLR,OVC,0.00,0.0,WeatherDisplay:10.37,2013-04-30 11:48:00,
2013-04-30 07:53:00,57.9,50.8,30.00,SSE,158,7.6,10.4,77,0.00,CLR,OVC,0.00,100.0,WeatherDisplay:10.37,2013-04-30 11:53:00,
2013-04-30 07:58:00,58.3,51.1,30.00,SSE,158,8.5,10.4,77,0.00,CLR,OVC,0.00,100.0,WeatherDisplay:10.37,2013-04-30 11:58:00,
2013-04-30 08:03:00,58.6,51.1,30.00,South,180,7.1,10.4,76,0.00,OVC,,0.00,0.0,WeatherDisplay:10.37,2013-04-30 12:03:00,
2013-04-30 08:08:00,58.8,50.9,30.00,SSE,158,9.8,12.7,75,0.00,OVC,,0.00,100.0,WeatherDisplay:10.37,2013-04-30 12:08:00,
2013-04-30 08:13:00,59.2,51.3,30.00,South,180,6.7,9.2,75,0.00,OVC,,0.00,100.0,WeatherDisplay:10.37,2013-04-30 12:13:00,
2013-04-30 08:18:00,59.7,51.4,30.00,South,180,6.4,8.1,74,0.00,OVC,,0.00,100.0,WeatherDisplay:10.37,2013-04-30 12:18:00,
2013-04-30 08:23:00,60.1,51.8,30.03,SSW,202,9.8,10.4,74,0.00,OVC,,0.00,100.0,WeatherDisplay:10.37,2013-04-30 12:23:00,
2013-04-30 08:28:00,60.4,51.7,30.03,SSW,202,6.0,11.5,73,0.00,OVC,,0.00,100.0,WeatherDisplay:10.37,2013-04-30 12:28:00,
2013-04-30 08:33:00,61.0,51.9,30.03,SSE,158,9.2,11.5,72,0.00,OVC,,0.00,200.0,WeatherDisplay:10.37,2013-04-30 12:33:00,
2013-04-30 08:38:00,61.5,52.0,30.03,SW,225,4.9,6.4,71,0.00,OVC,,0.00,200.0,WeatherDisplay:10.37,2013-04-30 12:38:00,
2013-04-30 08:43:00,62.2,52.7,30.03,WSW,248,7.8,11.5,71,0.00,OVC,,0.00,200.0,WeatherDisplay:10.37,2013-04-30 12:43:00,
2013-04-30 08:48:00,62.6,52.7,30.03,SSE,158,13.0,17.3,70,0.00,OVC,,0.00,200.0,WeatherDisplay:10.37,2013-04-30 12:48:00,
2013-04-30 08:53:00,62.8,52.5,30.00,SSE,158,7.8,13.8,69,0.00,OVC,,0.00,300.0,WeatherDisplay:10.37,2013-04-30 12:53:00,
2013-04-30 08:58:00,63.3,52.6,30.00,SSW,202,4.5,8.5,68,0.00,OVC,,0.00,300.0,WeatherDisplay:10.37,2013-04-30 12:58:00,
2013-04-30 09:03:00,63.7,52.5,30.00,SSE,158,9.2,13.0,67,0.00,BKN,OVC,0.00,200.0,WeatherDisplay:10.37,2013-04-30 13:03:00,
2013-04-30 09:08:00,63.5,51.9,30.03,SSW,202,6.0,10.7,66,0.00,BKN,OVC,0.00,300.0,WeatherDisplay:10.37,2013-04-30 13:08:00,
2013-04-30 09:13:00,63.5,51.5,30.03,SSW,202,9.7,9.7,65,0.00,BKN,OVC,0.00,0.0,WeatherDisplay:10.37,2013-04-30 13:13:00,
2013-04-30 09:18:00,63.5,51.5,30.03,SSW,202,10.0,12.7,65,0.00,BKN,OVC,0.00,300.0,WeatherDisplay:10.37,2013-04-30 13:18:00,
2013-04-30 09:23:00,63.5,51.5,30.06,SSE,158,6.7,9.2,65,0.00,BKN,OVC,0.00,300.0,WeatherDisplay:10.37,2013-04-30 13:23:00,
2013-04-30 09:28:00,63.7,51.7,30.06,SSW,202,8.1,12.7,65,0.00,BKN,OVC,0.00,300.0,WeatherDisplay:10.37,2013-04-30 13:28:00,
2013-04-30 09:33:00,63.7,51.7,30.06,South,180,6.7,11.5,65,0.00,BKN,OVC,0.00,200.0,WeatherDisplay:10.37,2013-04-30 13:33:00,
2013-04-30 09:38:00,63.7,51.3,30.06,SSE,158,8.1,11.5,64,0.00,BKN,OVC,0.00,200.0,WeatherDisplay:10.37,2013-04-30 13:38:00,
2013-04-30 09:43:00,63.5,50.7,30.06,SSW,202,10.7,13.8,63,0.00,BKN,OVC,0.00,300.0,WeatherDisplay:10.37,2013-04-30 13:43:00,
2013-04-30 09:48:00,63.5,50.7,30.06,SSW,202,7.6,8.1,63,0.00,BKN,OVC,0.00,300.0,WeatherDisplay:10.37,2013-04-30 13:48:00,
2013-04-30 09:53:00,63.7,50.8,30.06,SSE,158,7.1,10.4,63,0.00,BKN,OVC,0.00,400.0,WeatherDisplay:10.37,2013-04-30 13:53:00,
2013-04-30 09:58:00,63.9,50.6,30.06,SSW,202,9.2,16.8,62,0.00,BKN,OVC,0.00,400.0,WeatherDisplay:10.37,2013-04-30 13:58:00,
2013-04-30 10:03:00,63.9,50.6,30.06,SSW,202,7.8,11.5,62,0.00,BKN,OVC,0.00,400.0,WeatherDisplay:10.37,2013-04-30 14:03:00,
2013-04-30 10:08:00,64.2,50.5,30.03,SW,225,9.4,10.4,61,0.00,BKN,OVC,0.00,400.0,WeatherDisplay:10.37,2013-04-30 14:08:00,
2013-04-30 10:13:00,64.2,50.5,30.03,South,180,7.1,9.2,61,0.00,BKN,OVC,0.00,300.0,WeatherDisplay:10.37,2013-04-30 14:13:00,
2013-04-30 10:18:00,64.2,50.0,30.03,SSE,158,9.4,11.5,60,0.00,BKN,OVC,0.00,200.0,WeatherDisplay:10.37,2013-04-30 14:18:00,
2013-04-30 10:23:00,64.0,49.4,30.06,SSW,202,8.5,12.7,59,0.00,BKN,OVC,0.00,200.0,WeatherDisplay:10.37,2013-04-30 14:23:00,
2013-04-30 10:28:00,63.9,49.2,30.06,SSW,202,8.5,9.2,59,0.00,BKN,OVC,0.00,200.0,WeatherDisplay:10.37,2013-04-30 14:28:00,
2013-04-30 10:33:00,63.9,49.2,30.06,WSW,248,6.7,6.7,59,0.00,BKN,OVC,0.00,200.0,WeatherDisplay:10.37,2013-04-30 14:33:00,
2013-04-30 10:38:00,63.7,48.6,30.06,SSW,202,8.7,9.2,58,0.00,BKN,OVC,0.00,200.0,WeatherDisplay:10.37,2013-04-30 14:38:00,
2013-04-30 10:43:00,63.7,48.6,30.06,SSW,202,8.1,8.7,58,0.00,BKN,OVC,0.00,200.0,WeatherDisplay:10.37,2013-04-30 14:43:00,
2013-04-30 10:48:00,63.5,48.9,30.06,South,180,7.1,8.1,59,0.00,BKN,OVC,0.00,200.0,WeatherDisplay:10.37,2013-04-30 14:48:00,
2013-04-30 10:53:00,63.7,49.1,30.06,SSW,202,5.4,8.1,59,0.00,BKN,OVC,0.00,300.0,WeatherDisplay:10.37,2013-04-30 14:53:00,
2013-04-30 10:58:00,63.9,49.2,30.06,South,180,6.7,9.7,59,0.00,BKN,OVC,0.00,300.0,WeatherDisplay:10.37,2013-04-30 14:58:00,
2013-04-30 11:03:00,63.9,49.7,30.06,SSE,158,5.6,8.1,60,0.00,FEW,OVC,0.00,300.0,WeatherDisplay:10.37,2013-04-30 15:03:00,
2013-04-30 11:08:00,64.0,49.9,30.06,SSE,158,10.2,15.0,60,0.00,FEW,OVC,0.00,300.0,WeatherDisplay:10.37,2013-04-30 15:08:00,
2013-04-30 11:14:00,63.9,49.2,30.06,SSE,158,9.2,10.4,59,0.00,FEW,OVC,0.00,200.0,WeatherDisplay:10.37,2013-04-30 15:14:00,
2013-04-30 11:19:00,63.9,49.2,30.06,South,180,12.3,15.0,59,0.00,FEW,OVC,0.00,200.0,WeatherDisplay:10.37,2013-04-30 15:19:00,
2013-04-30 11:24:00,63.7,49.1,30.03,SSE,158,10.2,11.5,59,0.00,FEW,OVC,0.00,100.0,WeatherDisplay:10.37,2013-04-30 15:24:00,
2013-04-30 11:29:00,63.7,49.1,30.03,South,180,9.0,16.1,59,0.00,FEW,OVC,0.00,0.0,WeatherDisplay:10.37,2013-04-30 15:29:00,
2013-04-30 11:34:00,63.5,48.9,30.03,SSE,158,11.4,13.8,59,0.00,FEW,OVC,0.00,0.0,WeatherDisplay:10.37,2013-04-30 15:34:00,
2013-04-30 11:39:00,63.3,48.7,30.09,SSE,158,6.7,9.2,59,0.00,FEW,OVC,0.00,0.0,WeatherDisplay:10.37,2013-04-30 15:39:00,
2013-04-30 11:44:00,63.1,48.6,30.09,SSE,158,7.8,10.4,59,0.00,FEW,OVC,0.00,0.0,WeatherDisplay:10.37,2013-04-30 15:44:00,
2013-04-30 11:49:00,63.1,48.6,30.09,SSE,158,9.8,10.4,59,0.00,FEW,OVC,0.00,0.0,WeatherDisplay:10.37,2013-04-30 15:49:00,
2013-04-30 11:54:00,63.0,47.9,30.06,ESE,112,7.6,11.5,58,0.00,FEW,OVC,0.00,0.0,WeatherDisplay:10.37,2013-04-30 15:54:00,
2013-04-30 11:59:00,63.0,47.9,30.06,SSE,158,5.9,6.9,58,0.00,FEW,OVC,0.00,0.0,WeatherDisplay:10.37,2013-04-30 15:59:00,
2013-04-30 12:04:00,63.0,48.4,30.06,SSE,158,4.5,5.8,59,0.00,BKN,OVC,0.00,0.0,WeatherDisplay:10.37,2013-04-30 16:04:00,
2013-04-30 12:09:00,62.8,48.2,30.09,SSE,158,5.9,9.2,59,0.00,BKN,OVC,0.00,0.0,WeatherDisplay:10.37,2013-04-30 16:09:00,
2013-04-30 12:14:00,62.8,48.2,30.09,East,90,3.6,4.6,59,0.00,BKN,OVC,0.00,0.0,WeatherDisplay:10.37,2013-04-30 16:14:00,
2013-04-30 12:19:00,62.8,48.2,30.09,ESE,112,5.4,6.0,59,0.00,BKN,OVC,0.00,0.0,WeatherDisplay:10.37,2013-04-30 16:19:00,
2013-04-30 12:24:00,62.8,48.2,30.06,SE,135,6.4,8.1,59,0.00,BKN,OVC,0.00,0.0,WeatherDisplay:10.37,2013-04-30 16:24:00,
2013-04-30 12:29:00,62.8,48.2,30.06,SSE,158,8.5,10.0,59,0.00,BKN,OVC,0.00,0.0,WeatherDisplay:10.37,2013-04-30 16:29:00,
2013-04-30 12:34:00,62.6,48.1,30.06,SSE,158,7.8,9.2,59,0.00,BKN,OVC,0.00,0.0,WeatherDisplay:10.37,2013-04-30 16:34:00,
2013-04-30 12:39:00,62.6,48.1,30.06,ESE,112,6.2,8.1,59,0.00,BKN,OVC,0.00,0.0,WeatherDisplay:10.37,2013-04-30 16:39:00,
2013-04-30 12:44:00,62.6,48.5,30.06,ESE,112,6.4,10.4,60,0.00,BKN,OVC,0.00,0.0,WeatherDisplay:10.37,2013-04-30 16:44:00,
2013-04-30 12:49:00,62.6,48.5,30.06,East,90,11.2,13.8,60,0.00,BKN,OVC,0.00,100.0,WeatherDisplay:10.37,2013-04-30 16:49:00,
2013-04-30 12:54:00,62.8,48.7,30.06,ESE,112,9.0,12.7,60,0.00,BKN,OVC,0.00,100.0,WeatherDisplay:10.37,2013-04-30 16:54:00,
2013-04-30 12:59:00,62.8,48.2,30.06,SE,135,9.8,11.5,59,0.00,BKN,OVC,0.00,100.0,WeatherDisplay:10.37,2013-04-30 16:59:00,
2013-04-30 13:04:00,63.0,48.4,30.06,SSE,158,7.6,8.1,59,0.00,BKN,OVC,0.00,200.0,WeatherDisplay:10.37,2013-04-30 17:04:00,
2013-04-30 13:09:00,63.1,48.6,30.06,SE,135,5.9,6.9,59,0.00,BKN,OVC,0.00,200.0,WeatherDisplay:10.37,2013-04-30 17:09:00,
2013-04-30 13:14:00,63.5,48.9,30.06,South,180,6.7,9.2,59,0.00,BKN,OVC,0.00,300.0,WeatherDisplay:10.37,2013-04-30 17:14:00,
2013-04-30 13:19:00,63.7,49.1,30.06,SSE,158,7.8,10.4,59,0.00,BKN,OVC,0.00,300.0,WeatherDisplay:10.37,2013-04-30 17:19:00,
2013-04-30 13:24:00,64.0,49.4,30.06,SE,135,5.4,9.2,59,0.00,BKN,OVC,0.00,400.0,WeatherDisplay:10.37,2013-04-30 17:24:00,
2013-04-30 13:29:00,64.4,49.8,30.06,SSE,158,7.8,9.2,59,0.00,BKN,OVC,0.00,400.0,WeatherDisplay:10.37,2013-04-30 17:29:00,
2013-04-30 13:34:00,64.8,50.1,30.06,SSE,158,9.7,12.7,59,0.00,BKN,OVC,0.00,400.0,WeatherDisplay:10.37,2013-04-30 17:34:00,
2013-04-30 13:39:00,65.1,50.0,30.06,ESE,112,12.8,15.0,58,0.00,BKN,OVC,0.00,400.0,WeatherDisplay:10.37,2013-04-30 17:39:00,
2013-04-30 13:44:00,65.3,50.1,30.06,SE,135,10.7,15.9,58,0.00,BKN,OVC,0.00,400.0,WeatherDisplay:10.37,2013-04-30 17:44:00,
2013-04-30 13:49:00,65.7,50.0,30.06,SSE,158,12.5,13.8,57,0.00,BKN,OVC,0.00,400.0,WeatherDisplay:10.37,2013-04-30 17:49:00,
2013-04-30 13:54:00,65.8,50.2,30.06,SSE,158,10.0,10.4,57,0.00,BKN,OVC,0.00,400.0,WeatherDisplay:10.37,2013-04-30 17:54:00,
2013-04-30 13:59:00,66.2,50.0,30.06,SSE,158,10.9,14.3,56,0.00,BKN,OVC,0.00,400.0,WeatherDisplay:10.37,2013-04-30 17:59:00,
2013-04-30 14:04:00,66.4,50.2,30.06,SSE,158,10.2,19.6,56,0.00,CLR,OVC,0.00,500.0,WeatherDisplay:10.37,2013-04-30 18:04:00,
2013-04-30 14:09:00,66.7,50.5,30.03,SSW,202,13.5,17.3,56,0.00,CLR,OVC,0.00,500.0,WeatherDisplay:10.37,2013-04-30 18:09:00,
2013-04-30 14:14:00,66.9,50.2,30.03,SSE,158,16.8,19.6,55,0.00,CLR,OVC,0.00,500.0,WeatherDisplay:10.37,2013-04-30 18:14:00,
2013-04-30 14:19:00,67.1,50.4,30.03,ESE,112,14.7,21.9,55,0.00,CLR,OVC,0.00,600.0,WeatherDisplay:10.37,2013-04-30 18:19:00,
2013-04-30 14:24:00,67.3,50.6,30.03,SSE,158,15.4,18.4,55,0.00,CLR,OVC,0.00,700.0,WeatherDisplay:10.37,2013-04-30 18:24:00,
2013-04-30 14:29:00,67.6,50.9,30.03,SSE,158,12.8,15.0,55,0.00,CLR,OVC,0.00,0.0,WeatherDisplay:10.37,2013-04-30 18:29:00,
2013-04-30 14:34:00,68.0,51.2,30.03,SSE,158,12.1,13.8,55,0.00,CLR,OVC,0.00,700.0,WeatherDisplay:10.37,2013-04-30 18:34:00,
2013-04-30 14:39:00,68.4,51.1,30.03,South,180,15.4,23.0,54,0.00,CLR,OVC,0.00,0.0,WeatherDisplay:10.37,2013-04-30 18:39:00,
2013-04-30 14:44:00,68.4,51.1,30.03,SE,135,20.1,23.0,54,0.00,CLR,OVC,0.00,600.0,WeatherDisplay:10.37,2013-04-30 18:44:00,
2013-04-30 14:49:00,68.5,51.2,30.03,SSE,158,14.3,21.9,54,0.00,CLR,OVC,0.00,500.0,WeatherDisplay:10.37,2013-04-30 18:49:00,
2013-04-30 14:54:00,68.5,51.2,30.03,SSE,158,16.3,21.9,54,0.00,CLR,OVC,0.00,0.0,WeatherDisplay:10.37,2013-04-30 18:54:00,
2013-04-30 14:59:00,68.7,50.9,30.03,SSE,158,15.9,21.9,53,0.00,CLR,OVC,0.00,600.0,WeatherDisplay:10.37,2013-04-30 18:59:00,
2013-04-30 15:04:00,68.9,51.1,30.03,SSE,158,15.6,20.7,53,0.00,CLR,OVC,0.00,800.0,WeatherDisplay:10.37,2013-04-30 19:04:00,
2013-04-30 15:09:00,69.3,51.4,30.00,SSE,158,18.7,21.9,53,0.00,CLR,OVC,0.00,800.0,WeatherDisplay:10.37,2013-04-30 19:09:00,
2013-04-30 15:14:00,69.6,51.7,30.00,SE,135,10.7,12.7,53,0.00,CLR,OVC,0.00,800.0,WeatherDisplay:10.37,2013-04-30 19:14:00,
2013-04-30 15:19:00,70.0,52.1,30.00,SSE,158,16.3,26.5,53,0.00,CLR,OVC,0.00,800.0,WeatherDisplay:10.37,2013-04-30 19:19:00,
2013-04-30 15:24:00,70.2,52.2,30.00,SSW,202,12.3,19.6,53,0.00,CLR,OVC,0.00,600.0,WeatherDisplay:10.37,2013-04-30 19:24:00,
2013-04-30 15:29:00,70.3,52.4,30.00,South,180,9.4,17.3,53,0.00,CLR,OVC,0.00,500.0,WeatherDisplay:10.37,2013-04-30 19:29:00,
2013-04-30 15:34:00,70.3,52.4,30.00,SSE,158,13.5,15.0,53,0.00,CLR,OVC,0.00,500.0,WeatherDisplay:10.37,2013-04-30 19:34:00,
2013-04-30 15:39:00,70.3,52.4,30.00,SSE,158,13.2,16.1,53,0.00,CLR,OVC,0.00,500.0,WeatherDisplay:10.37,2013-04-30 19:39:00,
2013-04-30 15:44:00,70.3,52.4,30.00,SSE,158,14.0,19.6,53,0.00,CLR,OVC,0.00,600.0,WeatherDisplay:10.37,2013-04-30 19:44:00,
2013-04-30 15:49:00,70.5,52.0,30.00,SSE,158,13.0,13.8,52,0.00,CLR,OVC,0.00,800.0,WeatherDisplay:10.37,2013-04-30 19:49:00,
2013-04-30 15:54:00,70.7,52.2,30.00,South,180,16.8,20.7,52,0.00,CLR,OVC,0.00,900.0,WeatherDisplay:10.37,2013-04-30 19:54:00,
2013-04-30 15:59:00,71.1,52.5,30.00,SSE,158,17.6,20.7,52,0.00,CLR,OVC,0.00,800.0,WeatherDisplay:10.37,2013-04-30 19:59:00,
2013-04-30 16:04:00,71.1,51.5,30.00,SSE,158,12.1,19.6,50,0.00,CLR,OVC,0.00,500.0,WeatherDisplay:10.37,2013-04-30 20:04:00,
2013-04-30 16:09:00,71.1,52.0,30.00,SSE,158,12.1,18.7,51,0.00,CLR,OVC,0.00,600.0,WeatherDisplay:10.37,2013-04-30 20:09:00,
2013-04-30 16:14:00,71.1,51.5,30.00,SSE,158,10.0,12.7,50,0.00,CLR,OVC,0.00,400.0,WeatherDisplay:10.37,2013-04-30 20:14:00,
2013-04-30 16:19:00,71.1,51.5,30.00,SSE,158,8.5,12.7,50,0.00,CLR,OVC,0.00,400.0,WeatherDisplay:10.37,2013-04-30 20:19:00,
2013-04-30 16:24:00,71.1,51.5,30.00,SSE,158,11.4,13.8,50,0.00,CLR,OVC,0.00,600.0,WeatherDisplay:10.37,2013-04-30 20:24:00,
2013-04-30 16:29:00,71.1,51.5,30.00,SSE,158,9.8,16.1,50,0.00,CLR,OVC,0.00,600.0,WeatherDisplay:10.37,2013-04-30 20:29:00,
2013-04-30 16:34:00,71.2,51.6,30.00,ESE,112,14.0,19.6,50,0.00,CLR,OVC,0.00,500.0,WeatherDisplay:10.37,2013-04-30 20:34:00,
2013-04-30 16:40:00,71.4,51.8,30.00,SSE,158,11.8,13.8,50,0.00,CLR,OVC,0.00,500.0,WeatherDisplay:10.37,2013-04-30 20:40:00,
2013-04-30 16:45:00,71.4,51.8,30.00,SSE,158,13.5,15.0,50,0.00,CLR,OVC,0.00,500.0,WeatherDisplay:10.37,2013-04-30 20:45:00,
2013-04-30 16:50:00,71.6,51.4,30.00,SSE,158,8.5,12.5,49,0.00,CLR,OVC,0.00,500.0,WeatherDisplay:10.37,2013-04-30 20:50:00,
2013-04-30 16:55:00,71.6,51.4,29.97,SSE,158,14.3,19.6,49,0.00,CLR,OVC,0.00,400.0,WeatherDisplay:10.37,2013-04-30 20:55:00,
2013-04-30 17:00:00,71.6,50.9,29.97,SSE,158,18.7,23.0,48,0.00,CLR,OVC,0.00,400.0,WeatherDisplay:10.37,2013-04-30 21:00:00,
2013-04-30 17:05:00,71.4,50.7,29.97,SSE,158,12.8,12.8,48,0.00,CLR,OVC,0.00,300.0,WeatherDisplay:10.37,2013-04-30 21:05:00,
2013-04-30 17:10:00,71.4,51.3,29.97,SSE,158,12.3,14.5,49,0.00,CLR,OVC,0.00,300.0,WeatherDisplay:10.37,2013-04-30 21:10:00,
2013-04-30 17:15:00,71.2,51.1,29.97,SSE,158,12.3,15.0,49,0.00,CLR,OVC,0.00,300.0,WeatherDisplay:10.37,2013-04-30 21:15:00,
2013-04-30 17:20:00,71.2,50.5,29.97,SSE,158,10.0,12.7,48,0.00,CLR,OVC,0.00,300.0,WeatherDisplay:10.37,2013-04-30 21:20:00,
2013-04-30 17:25:00,71.1,50.4,30.00,SSE,158,10.5,15.0,48,0.00,CLR,OVC,0.00,200.0,WeatherDisplay:10.37,2013-04-30 21:25:00,
2013-04-30 17:30:00,70.9,50.2,30.00,SSW,202,6.9,9.2,48,0.00,CLR,OVC,0.00,200.0,WeatherDisplay:10.37,2013-04-30 21:30:00,
2013-04-30 17:35:00,70.9,50.8,30.00,SSE,158,7.8,13.8,49,0.00,CLR,OVC,0.00,200.0,WeatherDisplay:10.37,2013-04-30 21:35:00,
2013-04-30 17:40:00,71.1,50.9,30.00,SSE,158,8.1,10.4,49,0.00,CLR,OVC,0.00,200.0,WeatherDisplay:10.37,2013-04-30 21:40:00,
2013-04-30 17:45:00,71.1,50.9,30.00,SSE,158,9.4,11.5,49,0.00,CLR,OVC,0.00,200.0,WeatherDisplay:10.37,2013-04-30 21:45:00,
2013-04-30 17:50:00,71.1,50.9,30.00,SSE,158,6.4,9.2,49,0.00,CLR,OVC,0.00,200.0,WeatherDisplay:10.37,2013-04-30 21:50:00,
2013-04-30 17:55:00,71.1,50.9,29.97,SE,135,6.9,8.1,49,0.00,CLR,OVC,0.00,200.0,WeatherDisplay:10.37,2013-04-30 21:55:00,
2013-04-30 18:00:00,71.1,50.9,29.97,SSE,158,8.7,10.4,49,0.00,CLR,OVC,0.00,200.0,WeatherDisplay:10.37,2013-04-30 22:00:00,
2013-04-30 18:05:00,71.1,51.5,30.00,ESE,112,6.4,9.2,50,0.00,CLR,OVC,0.00,200.0,WeatherDisplay:10.37,2013-04-30 22:05:00,
2013-04-30 18:10:00,71.2,51.6,30.00,SSE,158,6.0,10.4,50,0.00,CLR,OVC,0.00,200.0,WeatherDisplay:10.37,2013-04-30 22:10:00,
2013-04-30 18:15:00,71.2,51.1,30.00,SSE,158,10.9,15.0,49,0.00,CLR,OVC,0.00,200.0,WeatherDisplay:10.37,2013-04-30 22:15:00,
2013-04-30 18:20:00,71.1,50.9,30.00,SE,135,7.4,10.4,49,0.00,CLR,OVC,0.00,100.0,WeatherDisplay:10.37,2013-04-30 22:20:00,
2013-04-30 18:25:00,71.1,50.4,30.00,SSE,158,7.4,9.2,48,0.00,CLR,OVC,0.00,100.0,WeatherDisplay:10.37,2013-04-30 22:25:00,
2013-04-30 18:30:00,70.9,50.2,30.00,SSE,158,9.0,13.8,48,0.00,CLR,OVC,0.00,100.0,WeatherDisplay:10.37,2013-04-30 22:30:00,
2013-04-30 18:35:00,70.9,50.2,30.00,SE,135,6.2,10.7,48,0.00,CLR,OVC,0.00,100.0,WeatherDisplay:10.37,2013-04-30 22:35:00,
2013-04-30 18:40:00,70.7,50.0,30.00,ESE,112,8.5,10.4,48,0.00,CLR,OVC,0.00,100.0,WeatherDisplay:10.37,2013-04-30 22:40:00,
2013-04-30 18:45:00,70.5,49.9,30.00,ESE,112,8.7,11.5,48,0.00,CLR,OVC,0.00,100.0,WeatherDisplay:10.37,2013-04-30 22:45:00,
2013-04-30 18:50:00,70.3,49.7,30.00,SSE,158,8.7,11.5,48,0.00,CLR,OVC,0.00,100.0,WeatherDisplay:10.37,2013-04-30 22:50:00,
2013-04-30 18:55:00,70.3,49.7,30.00,SSE,158,6.9,8.1,48,0.00,CLR,OVC,0.00,100.0,WeatherDisplay:10.37,2013-04-30 22:55:00,
2013-04-30 19:00:00,70.2,49.5,30.00,SSE,158,6.9,10.4,48,0.00,CLR,OVC,0.00,100.0,WeatherDisplay:10.37,2013-04-30 23:00:00,
2013-04-30 19:05:00,70.0,49.9,30.03,SSE,158,7.1,10.4,49,0.00,CLR,OVC,0.00,100.0,WeatherDisplay:10.37,2013-04-30 23:05:00,
2013-04-30 19:10:00,69.8,49.8,30.03,SSE,158,7.1,8.1,49,0.00,CLR,OVC,0.00,0.0,WeatherDisplay:10.37,2013-04-30 23:10:00,
2013-04-30 19:15:00,69.8,49.8,30.03,SSE,158,6.4,8.5,49,0.00,CLR,OVC,0.00,0.0,WeatherDisplay:10.37,2013-04-30 23:15:00,
2013-04-30 19:20:00,69.6,49.6,30.03,SE,135,7.8,9.2,49,0.00,CLR,OVC,0.00,0.0,WeatherDisplay:10.37,2013-04-30 23:20:00,
2013-04-30 19:25:00,69.4,49.4,30.03,SSE,158,7.8,9.2,49,0.00,CLR,OVC,0.00,0.0,WeatherDisplay:10.37,2013-04-30 23:25:00,
2013-04-30 19:30:00,69.3,49.8,30.03,SSE,158,6.7,8.1,50,0.00,CLR,OVC,0.00,0.0,WeatherDisplay:10.37,2013-04-30 23:30:00,
2013-04-30 19:35:00,69.1,49.7,30.03,SSE,158,4.0,5.8,50,0.00,CLR,OVC,0.00,0.0,WeatherDisplay:10.37,2013-04-30 23:35:00,
2013-04-30 19:40:00,68.9,49.5,30.03,SE,135,5.6,6.9,50,0.00,CLR,OVC,0.00,0.0,WeatherDisplay:10.37,2013-04-30 23:40:00,
2013-04-30 19:45:00,68.7,49.9,30.03,ESE,112,4.3,5.8,51,0.00,CLR,OVC,0.00,0.0,WeatherDisplay:10.37,2013-04-30 23:45:00,
2013-04-30 19:50:00,68.5,49.7,30.03,SSE,158,4.5,5.8,51,0.00,CLR,OVC,0.00,0.0,WeatherDisplay:10.37,2013-04-30 23:50:00,
2013-04-30 19:55:00,68.4,49.5,30.03,SSE,158,5.9,6.9,51,0.00,CLR,OVC,0.00,0.0,WeatherDisplay:10.37,2013-04-30 23:55:00,
2013-04-30 20:00:00,68.0,49.2,30.03,SE,135,4.5,6.4,51,0.00,CLR,OVC,0.00,0.0,WeatherDisplay:10.37,2013-05-01 00:00:00,
2013-04-30 20:05:00,67.8,49.5,30.06,SSE,158,4.7,5.8,52,0.00,CLR,OVC,0.00,0.0,WeatherDisplay:10.37,2013-05-01 00:05:00,
2013-04-30 20:10:00,67.5,49.2,30.06,SSE,158,5.6,5.8,52,0.00,CLR,OVC,0.00,0.0,WeatherDisplay:10.37,2013-05-01 00:10:00,
2013-04-30 20:15:00,67.3,49.6,30.06,SE,135,4.3,5.8,53,0.00,CLR,OVC,0.00,0.0,WeatherDisplay:10.37,2013-05-01 00:15:00,
2013-04-30 20:20:00,67.1,49.4,30.06,SE,135,4.7,5.8,53,0.00,CLR,OVC,0.00,0.0,WeatherDisplay:10.37,2013-05-01 00:20:00,
2013-04-30 20:25:00,66.9,49.2,30.06,SSE,158,4.9,5.8,53,0.00,CLR,OVC,0.00,0.0,WeatherDisplay:10.37,2013-05-01 00:25:00,
2013-04-30 20:30:00,66.6,49.4,30.06,SSE,158,3.8,5.8,54,0.00,CLR,OVC,0.00,0.0,WeatherDisplay:10.37,2013-05-01 00:30:00,
2013-04-30 20:35:00,66.4,49.2,30.06,SE,137,5.0,6.0,54,0.00,CLR,OVC,0.00,0.0,WeatherDisplay:10.37,2013-05-01 00:35:00,
2013-04-30 20:40:00,66.0,48.9,30.06,SSE,158,3.6,4.6,54,0.00,CLR,OVC,0.00,0.0,WeatherDisplay:10.37,2013-05-01 00:40:00,
2013-04-30 20:45:00,65.8,48.7,30.06,SE,140,3.0,6.0,54,0.00,CLR,OVC,0.00,0.0,WeatherDisplay:10.37,2013-05-01 00:45:00,
2013-04-30 20:50:00,65.7,48.6,30.06,SSE,158,4.5,4.7,54,0.00,CLR,OVC,0.00,0.0,WeatherDisplay:10.37,2013-05-01 00:50:00,
2013-04-30 20:55:00,65.3,48.3,30.06,SSE,150,5.0,6.0,54,0.00,CLR,OVC,0.00,0.0,WeatherDisplay:10.37,2013-05-01 00:55:00,
2013-04-30 21:00:00,65.1,48.5,30.06,SSE,149,5.0,8.0,55,0.00,CLR,OVC,0.00,0.0,WeatherDisplay:10.37,2013-05-01 01:00:00,
2013-04-30 21:05:00,64.8,48.2,30.06,SSE,158,3.3,4.6,55,0.00,CLR,OVC,0.00,0.0,WeatherDisplay:10.37,2013-05-01 01:05:00,
2013-04-30 21:10:00,64.6,48.0,30.06,SSE,158,4.7,6.2,55,0.00,CLR,OVC,0.00,0.0,WeatherDisplay:10.37,2013-05-01 01:10:00,
2013-04-30 21:15:00,64.4,47.9,30.06,SE,144,5.0,6.0,55,0.00,CLR,OVC,0.00,0.0,WeatherDisplay:10.37,2013-05-01 01:15:00,
2013-04-30 21:20:00,64.0,48.0,30.06,SE,135,3.8,4.6,56,0.00,CLR,OVC,0.00,0.0,WeatherDisplay:10.37,2013-05-01 01:20:00,
2013-04-30 21:25:00,63.9,47.9,30.06,SSE,158,3.1,4.0,56,0.00,CLR,OVC,0.00,0.0,WeatherDisplay:10.37,2013-05-01 01:25:00,
2013-04-30 21:30:00,63.7,47.7,30.06,SE,135,3.6,4.6,56,0.00,CLR,OVC,0.00,0.0,WeatherDisplay:10.37,2013-05-01 01:30:00,
2013-04-30 21:35:00,63.5,47.5,30.03,SE,135,2.9,4.6,56,0.00,CLR,OVC,0.00,0.0,WeatherDisplay:10.37,2013-05-01 01:35:00,
2013-04-30 21:40:00,63.3,47.3,30.03,SE,135,4.3,6.0,56,0.00,CLR,OVC,0.00,0.0,WeatherDisplay:10.37,2013-05-01 01:40:00,
2013-04-30 21:45:00,63.1,47.2,30.03,ESE,112,4.3,4.6,56,0.00,CLR,OVC,0.00,0.0,WeatherDisplay:10.37,2013-05-01 01:45:00,
2013-04-30 21:50:00,63.0,47.0,30.06,SSE,158,3.8,4.6,56,0.00,CLR,OVC,0.00,0.0,WeatherDisplay:10.37,2013-05-01 01:50:00,
2013-04-30 21:55:00,63.0,47.0,30.06,SSE,158,3.6,5.8,56,0.00,CLR,OVC,0.00,0.0,WeatherDisplay:10.37,2013-05-01 01:55:00,
2013-04-30 22:00:00,62.8,47.3,30.06,SE,135,4.0,5.8,57,0.00,CLR,OVC,0.00,0.0,WeatherDisplay:10.37,2013-05-01 02:00:00,
2013-04-30 22:05:00,62.8,47.3,30.06,SE,135,3.3,3.5,57,0.00,CLR,OVC,0.00,0.0,WeatherDisplay:10.37,2013-05-01 02:05:00,
2013-04-30 22:10:00,62.6,47.1,30.06,SE,135,2.0,3.5,57,0.00,CLR,OVC,0.00,0.0,WeatherDisplay:10.37,2013-05-01 02:10:00,
2013-04-30 22:15:00,62.6,47.1,30.06,SSE,158,2.0,4.0,57,0.00,CLR,OVC,0.00,0.0,WeatherDisplay:10.37,2013-05-01 02:15:00,
2013-04-30 22:20:00,62.4,47.4,30.06,ESE,112,1.4,2.9,58,0.00,CLR,OVC,0.00,0.0,WeatherDisplay:10.37,2013-05-01 02:20:00,
2013-04-30 22:25:00,62.2,47.3,30.06,SE,135,2.4,3.5,58,0.00,CLR,OVC,0.00,0.0,WeatherDisplay:10.37,2013-05-01 02:25:00,
2013-04-30 22:30:00,62.1,47.1,30.06,SE,135,2.9,3.5,58,0.00,CLR,OVC,0.00,0.0,WeatherDisplay:10.37,2013-05-01 02:30:00,
2013-04-30 22:36:00,62.1,47.1,30.06,ESE,112,2.9,4.6,58,0.00,CLR,OVC,0.00,0.0,WeatherDisplay:10.37,2013-05-01 02:36:00,
2013-04-30 22:41:00,61.9,46.9,30.06,ESE,112,2.6,3.6,58,0.00,CLR,OVC,0.00,0.0,WeatherDisplay:10.37,2013-05-01 02:41:00,
2013-04-30 22:46:00,61.9,46.9,30.06,SSE,158,2.6,3.5,58,0.00,CLR,OVC,0.00,0.0,WeatherDisplay:10.37,2013-05-01 02:46:00,
2013-04-30 22:51:00,61.9,46.9,30.09,ESE,112,3.1,4.0,58,0.00,CLR,OVC,0.00,0.0,WeatherDisplay:10.37,2013-05-01 02:51:00,
2013-04-30 22:56:00,61.7,46.8,30.09,ESE,112,3.1,4.6,58,0.00,CLR,OVC,0.00,0.0,WeatherDisplay:10.37,2013-05-01 02:56:00,
2013-04-30 23:01:00,61.7,47.2,30.09,SE,135,2.4,3.5,59,0.00,CLR,OVC,0.00,0.0,WeatherDisplay:10.37,2013-05-01 03:01:00,
2013-04-30 23:06:00,61.7,47.2,30.06,ESE,112,3.6,4.6,59,0.00,CLR,OVC,0.00,0.0,WeatherDisplay:10.37,2013-05-01 03:06:00,
2013-04-30 23:11:00,61.5,47.1,30.06,SSE,158,3.1,3.6,59,0.00,CLR,OVC,0.00,0.0,WeatherDisplay:10.37,2013-05-01 03:11:00,
2013-04-30 23:16:00,61.3,46.9,30.06,ESE,112,2.6,3.5,59,0.00,CLR,OVC,0.00,0.0,WeatherDisplay:10.37,2013-05-01 03:16:00,
2013-04-30 23:21:00,61.3,46.9,30.09,SE,135,3.3,3.5,59,0.00,CLR,OVC,0.00,0.0,WeatherDisplay:10.37,2013-05-01 03:21:00,
2013-04-30 23:26:00,61.2,46.7,30.09,SSE,158,2.9,3.5,59,0.00,CLR,OVC,0.00,0.0,WeatherDisplay:10.37,2013-05-01 03:26:00,
2013-04-30 23:31:00,61.0,46.5,30.09,SE,135,2.9,3.6,59,0.00,CLR,OVC,0.00,0.0,WeatherDisplay:10.37,2013-05-01 03:31:00,
2013-04-30 23:36:00,61.0,47.0,30.09,SSE,158,4.3,5.9,60,0.00,CLR,OVC,0.00,0.0,WeatherDisplay:10.37,2013-05-01 03:36:00,
2013-04-30 23:41:00,61.0,47.0,30.09,ESE,112,3.1,4.3,60,0.00,CLR,OVC,0.00,0.0,WeatherDisplay:10.37,2013-05-01 03:41:00,
2013-04-30 23:46:00,61.0,47.0,30.09,ESE,112,3.1,3.5,60,0.00,CLR,OVC,0.00,0.0,WeatherDisplay:10.37,2013-05-01 03:46:00,
2013-04-30 23:51:00,61.0,47.0,30.09,ESE,112,3.6,3.6,60,0.00,CLR,OVC,0.00,0.0,WeatherDisplay:10.37,2013-05-01 03:51:00,
2013-04-30 23:56:00,60.8,46.8,30.09,SE,135,3.6,4.7,60,0.00,CLR,OVC,0.00,0.0,WeatherDisplay:10.37,2013-05-01 03:56:00,